Portada
METAR-TAF:

METAR-TAF

Aeropuertos :

Aeropuerto Internacional Diori Hamani

Niamey, Níger

latitud: 13-29N, longitud: 002-10E, altitud: 223 m

Observación

El informe se hizo hace 1 hora y 1 minutos, a las 15:00 UTC
Viento 6 kt del este-sureste, variando entre este y sur-sureste
Temperatura 35°C
Humedad 12%
Presión 1011 hPa
Visibilidad: 7000 m

METAR: DRRN 201500Z 11006KT 080V160 7000 R09/1400N NSC 35/01 Q1011 NOSIG

Hora: 17:01 (16:01 UTC)

Pronóstico

El informe se hizo hace 5 horas y 1 minutos, a las 11:00 UTC
Pronóstico válido del 20 a las 12 UTC al 21 a las 18 UTC
Viento 8 kt del este
Visibilidad: 6000 m
Temporalmente
del 20 a las 17 UTC al 20 a las 20 UTC
Visibilidad: 4000 m
Polvo extendido
Temporalmente
del 21 a las 06 UTC al 21 a las 09 UTC
Visibilidad: 4000 m
Polvo extendido

TAF: DRRN 201100Z 2012/2118 08008KT 6000 NSC TEMPO 2017/2020 4000 DU TEMPO 2106/2109 4000 DU

Observaciones y pronósticos meteorológicos de más de 4000 aeropuertos (mensajes METAR y TAF).

Los puntos amarillos y rojos representan las estaciones disponibles.

Ponga el ratón en el punto deseado para ver el nombre de la estación.

Haga clic para ver las observaciones y los pronósticos meteorológicos.

Para cambiar el mapa : haga clic en los botones verdes con una cruz de color negro para hacer un zoom, en el botón verde con un guión para alejar o en las flechas verdes para mapas adyacentes.


METAR-TAF: